Time;durP1;ratioP1;P1;durP2;ratioP2;P2;SDS_P1;SDS_P2;PMS_P1;PMS_P2;Temp;Humidity;BMP_temperature;BMP_pressure;BME280_temperature;BME280_humidity;BME280_pressure;Samples;Min_cycle;Max_cycle;Signal;HPM_P1;HPM_P2
2021/03/21 00:02:17;;;;;;;98.95;12.98;;;;;;;;;;4964642;28;20034;-62
2021/03/21 00:04:44;;;;;;;86.25;12.00;;;;;;;;;;4986392;28;20027;-62
2021/03/21 00:07:11;;;;;;;89.45;11.05;;;;;;;;;;4987895;28;20018;-60
2021/03/21 00:09:39;;;;;;;83.63;12.50;;;;;;;;;;4983080;28;20022;-58
2021/03/21 00:12:07;;;;;;;83.07;11.20;;;;;;;;;;4991734;28;20022;-64
2021/03/21 00:14:34;;;;;;;179.55;21.50;;;;;;;;;;4991760;28;20025;-63
2021/03/21 00:17:02;;;;;;;134.20;16.05;;;;;;;;;;4990709;28;20072;-58
2021/03/21 00:19:29;;;;;;;117.10;13.43;;;;;;;;;;4992085;28;20029;-59
2021/03/21 00:21:56;;;;;;;98.32;11.63;;;;;;;;;;4957662;28;20057;-60
2021/03/21 00:24:23;;;;;;;118.18;14.68;;;;;;;;;;4992456;28;20478;-59
2021/03/21 00:26:50;;;;;;;111.45;13.60;;;;;;;;;;4992234;28;20023;-58
2021/03/21 00:29:17;;;;;;;94.28;13.30;;;;;;;;;;4992160;28;20096;-58
2021/03/21 00:31:45;;;;;;;83.57;12.20;;;;;;;;;;4991810;28;20045;-60
2021/03/21 00:34:12;;;;;;;107.65;13.52;;;;;;;;;;4977939;28;20027;-59
2021/03/21 00:36:39;;;;;;;114.72;14.20;;;;;;;;;;4985806;28;20044;-62
2021/03/21 00:39:06;;;;;;;97.57;13.90;;;;;;;;;;4984857;28;20023;-62
2021/03/21 00:41:33;;;;;;;96.28;14.57;;;;;;;;;;4981875;28;20010;-57
2021/03/21 00:44:01;;;;;;;91.22;15.27;;;;;;;;;;4985733;28;20021;-50
2021/03/21 00:46:28;;;;;;;106.32;14.35;;;;;;;;;;4991356;28;20077;-48
2021/03/21 00:48:55;;;;;;;103.63;13.55;;;;;;;;;;4991868;28;20046;-52
2021/03/21 00:51:22;;;;;;;105.68;15.00;;;;;;;;;;4990075;28;20037;-52
2021/03/21 00:53:49;;;;;;;107.50;16.48;;;;;;;;;;4971652;28;20486;-50
2021/03/21 00:56:28;;;;;;;111.38;15.18;;;;;;;;;;4971635;28;20557;-65
2021/03/21 00:58:58;;;;;;;130.20;18.50;;;;;;;;;;4971428;28;20019;-47
2021/03/21 01:01:25;;;;;;;128.50;16.27;;;;;;;;;;4972221;28;20029;-54
2021/03/21 01:03:52;;;;;;;128.57;16.70;;;;;;;;;;4971364;28;20106;-50
2021/03/21 01:06:19;;;;;;;111.40;17.00;;;;;;;;;;4974559;28;20023;-61
2021/03/21 01:08:47;;;;;;;105.47;16.13;;;;;;;;;;4976787;28;20752;-57
2021/03/21 01:11:19;;;;;;;112.28;18.10;;;;;;;;;;4972682;28;20027;-52
2021/03/21 01:13:46;;;;;;;123.57;17.80;;;;;;;;;;4974746;28;20495;-53
2021/03/21 01:16:21;;;;;;;131.90;17.25;;;;;;;;;;4970647;28;20455;-50
2021/03/21 01:18:51;;;;;;;119.68;17.13;;;;;;;;;;4970623;28;20081;-59
2021/03/21 01:21:20;;;;;;;122.70;17.80;;;;;;;;;;4971716;28;20046;-56
2021/03/21 01:23:47;;;;;;;102.47;17.35;;;;;;;;;;4974971;28;20030;-60
2021/03/21 01:26:16;;;;;;;131.55;19.30;;;;;;;;;;4972753;28;20352;-50
2021/03/21 01:28:44;;;;;;;119.55;18.40;;;;;;;;;;4989022;28;20046;-54
2021/03/21 01:31:13;;;;;;;126.78;19.02;;;;;;;;;;4981559;28;20027;-51
2021/03/21 01:33:40;;;;;;;127.95;18.67;;;;;;;;;;4974059;28;20053;-69
2021/03/21 01:36:12;;;;;;;118.32;17.27;;;;;;;;;;4991259;28;20072;-48
2021/03/21 01:38:39;;;;;;;122.57;19.27;;;;;;;;;;4989693;28;20061;-57
2021/03/21 01:41:07;;;;;;;105.72;18.25;;;;;;;;;;4982320;28;20034;-58
2021/03/21 01:43:36;;;;;;;135.52;19.67;;;;;;;;;;4980594;28;20031;-63
2021/03/21 01:46:03;;;;;;;120.38;18.67;;;;;;;;;;4990094;28;20371;-66
2021/03/21 01:48:33;;;;;;;127.07;19.80;;;;;;;;;;4990889;28;20022;-60
2021/03/21 01:51:11;;;;;;;133.15;19.88;;;;;;;;;;4990904;28;20022;-59
2021/03/21 01:53:39;;;;;;;140.80;20.77;;;;;;;;;;4991249;28;20146;-60
2021/03/21 01:56:08;;;;;;;128.18;20.55;;;;;;;;;;4990908;28;20023;-60
2021/03/21 01:58:37;;;;;;;115.82;19.35;;;;;;;;;;4958117;28;20058;-63
2021/03/21 02:01:19;;;;;;;115.72;21.15;;;;;;;;;;4973676;28;20069;-57
2021/03/21 02:03:46;;;;;;;120.82;19.70;;;;;;;;;;4991601;28;20022;-51
2021/03/21 02:06:26;;;;;;;125.97;19.95;;;;;;;;;;4987851;28;20022;-71
2021/03/21 02:09:05;;;;;;;127.53;19.40;;;;;;;;;;4980252;28;20468;-62
2021/03/21 02:11:50;;;;;;;124.13;19.98;;;;;;;;;;4978771;28;20113;-52
2021/03/21 02:14:22;;;;;;;113.05;20.38;;;;;;;;;;4991340;28;20030;-53
2021/03/21 02:17:09;;;;;;;110.33;20.27;;;;;;;;;;4991471;28;20062;-59
2021/03/21 02:19:44;;;;;;;117.63;20.17;;;;;;;;;;4991622;28;20022;-51
2021/03/21 02:22:17;;;;;;;106.18;20.13;;;;;;;;;;4991643;28;20054;-53
2021/03/21 02:24:43;;;;;;;;;;;;;;;;;;4992097;28;20037;-59
2021/03/21 02:27:10;;;;;;;98.85;19.52;;;;;;;;;;4970159;28;19913;-60
2021/03/21 02:29:45;;;;;;;89.95;18.52;;;;;;;;;;4976379;28;20029;-52
2021/03/21 02:32:24;;;;;;;92.50;18.80;;;;;;;;;;4984469;28;20026;-58
2021/03/21 02:35:07;;;;;;;99.10;18.73;;;;;;;;;;4981346;28;20113;-56
2021/03/21 02:37:56;;;;;;;83.40;18.23;;;;;;;;;;4980983;28;20034;-67
2021/03/21 02:40:26;;;;;;;90.30;19.27;;;;;;;;;;4982586;28;20027;-57
2021/03/21 02:42:57;;;;;;;72.95;17.10;;;;;;;;;;4994225;28;20070;-60
2021/03/21 02:45:26;;;;;;;74.15;16.45;;;;;;;;;;4986650;28;20023;-57
2021/03/21 02:47:55;;;;;;;82.07;17.85;;;;;;;;;;4989492;28;20030;-58
2021/03/21 02:50:22;;;;;;;89.75;17.60;;;;;;;;;;4970188;28;20074;-55
2021/03/21 02:52:51;;;;;;;79.05;17.80;;;;;;;;;;4993802;28;20021;-51
2021/03/21 02:55:21;;;;;;;71.05;16.48;;;;;;;;;;4985175;28;20044;-53
2021/03/21 02:57:50;;;;;;;75.20;16.40;;;;;;;;;;4991031;28;20065;-57
2021/03/21 03:00:22;;;;;;;80.50;18.52;;;;;;;;;;4994167;28;20041;-60
2021/03/21 03:02:49;;;;;;;;;;;;;;;;;;4994502;28;20022;-56
2021/03/21 03:05:37;;;;;;;69.30;17.30;;;;;;;;;;4994143;28;19909;-56
2021/03/21 03:08:09;;;;;;;76.65;16.70;;;;;;;;;;4976687;28;20022;-57
2021/03/21 03:10:59;;;;;;;91.15;19.38;;;;;;;;;;4977040;28;20054;-52
2021/03/21 03:13:29;;;;;;;93.03;18.05;;;;;;;;;;4969462;28;20030;-56
2021/03/21 03:15:59;;;;;;;81.30;18.35;;;;;;;;;;4993478;28;20034;-64
2021/03/21 03:18:41;;;;;;;73.07;16.77;;;;;;;;;;4976513;28;20077;-56
2021/03/21 03:21:13;;;;;;;85.43;16.75;;;;;;;;;;4993980;28;20042;-53
2021/03/21 03:23:40;;;;;;;74.85;16.85;;;;;;;;;;4990290;28;20037;-53
2021/03/21 03:26:27;;;;;;;78.72;18.00;;;;;;;;;;4984710;28;20026;-53
2021/03/21 03:29:01;;;;;;;71.57;15.55;;;;;;;;;;4993244;28;20022;-51
2021/03/21 03:31:40;;;;;;;69.70;15.68;;;;;;;;;;4993157;28;20027;-56
2021/03/21 03:34:07;;;;;;;101.03;17.48;;;;;;;;;;4990789;28;20069;-55
2021/03/21 03:36:34;;;;;;;88.82;16.25;;;;;;;;;;4990667;28;20038;-55
2021/03/21 03:39:02;;;;;;;88.30;15.75;;;;;;;;;;4990198;28;20030;-54
2021/03/21 03:41:29;;;;;;;79.45;15.63;;;;;;;;;;4984620;28;20128;-58
2021/03/21 03:44:11;;;;;;;62.30;14.50;;;;;;;;;;4983036;28;20467;-56
2021/03/21 03:46:38;;;;;;;79.60;15.77;;;;;;;;;;4977010;28;20030;-56
2021/03/21 03:49:28;;;;;;;84.18;15.13;;;;;;;;;;4990478;28;20026;-56
2021/03/21 03:52:13;;;;;;;73.93;14.05;;;;;;;;;;4964531;28;20461;-56
2021/03/21 03:54:46;;;;;;;78.00;14.93;;;;;;;;;;4990495;28;20157;-53
2021/03/21 03:57:12;;;;;;;;;;;;;;;;;;4990431;28;20042;-58
2021/03/21 03:59:42;;;;;;;64.78;13.98;;;;;;;;;;4990346;28;20250;-54
2021/03/21 04:02:14;;;;;;;57.15;11.18;;;;;;;;;;4989574;28;20036;-55
2021/03/21 04:05:19;;;;;;;60.00;12.27;;;;;;;;;;4990292;28;20105;-56
2021/03/21 04:08:01;;;;;;;77.50;11.68;;;;;;;;;;4907832;29;20040;-56
2021/03/21 04:10:34;;;;;;;76.22;13.32;;;;;;;;;;4910982;29;20032;-55
2021/03/21 04:13:05;;;;;;;58.92;12.50;;;;;;;;;;4960814;28;20042;-52
2021/03/21 04:15:34;;;;;;;60.95;11.98;;;;;;;;;;4989943;28;20026;-58
2021/03/21 04:18:11;;;;;;;83.93;13.13;;;;;;;;;;4984063;28;20023;-62
2021/03/21 04:21:00;;;;;;;49.42;10.88;;;;;;;;;;4988748;28;20030;-57
2021/03/21 04:23:46;;;;;;;47.83;10.48;;;;;;;;;;4965859;28;20113;-59
2021/03/21 04:26:16;;;;;;;47.25;10.18;;;;;;;;;;4970872;28;20045;-58
2021/03/21 04:28:44;;;;;;;44.08;10.30;;;;;;;;;;4966047;28;20032;-59
2021/03/21 04:31:13;;;;;;;43.83;10.63;;;;;;;;;;4987210;28;20022;-60
2021/03/21 04:33:49;;;;;;;45.42;10.18;;;;;;;;;;4989981;28;20534;-56
2021/03/21 04:36:36;;;;;;;38.33;9.88;;;;;;;;;;4989630;28;20049;-51
2021/03/21 04:39:06;;;;;;;49.17;10.23;;;;;;;;;;4988737;28;20037;-51
2021/03/21 04:41:40;;;;;;;37.65;8.82;;;;;;;;;;4986027;28;20072;-51
2021/03/21 04:44:27;;;;;;;50.63;10.07;;;;;;;;;;4989212;28;20038;-53
2021/03/21 04:47:00;;;;;;;30.70;8.85;;;;;;;;;;4975452;28;20034;-52
2021/03/21 04:49:27;;;;;;;39.45;9.63;;;;;;;;;;4988637;28;20021;-56
2021/03/21 04:52:02;;;;;;;38.03;9.43;;;;;;;;;;4989416;28;20053;-58
2021/03/21 04:54:31;;;;;;;34.53;8.90;;;;;;;;;;4971991;28;20375;-50
2021/03/21 04:57:04;;;;;;;32.53;8.00;;;;;;;;;;4989959;28;20131;-46
2021/03/21 04:59:34;;;;;;;34.42;8.98;;;;;;;;;;4972377;28;20026;-47
2021/03/21 05:02:10;;;;;;;28.77;9.20;;;;;;;;;;4989384;28;20417;-47
2021/03/21 05:04:46;;;;;;;33.42;8.48;;;;;;;;;;4989774;28;20616;-46
2021/03/21 05:07:15;;;;;;;33.25;8.43;;;;;;;;;;4989725;28;20053;-48
2021/03/21 05:09:47;;;;;;;30.33;8.75;;;;;;;;;;4989581;28;20657;-46
2021/03/21 05:12:17;;;;;;;30.02;8.32;;;;;;;;;;4989682;28;20030;-48
2021/03/21 05:14:49;;;;;;;32.28;8.63;;;;;;;;;;4989697;28;20390;-51
2021/03/21 05:17:16;;;;;;;;;;;;;;;;;;4989464;28;20145;-52
2021/03/21 05:20:05;;;;;;;25.20;7.53;;;;;;;;;;4989321;28;19955;-50
2021/03/21 05:22:40;;;;;;;27.95;7.30;;;;;;;;;;4989167;28;20046;-51
2021/03/21 05:25:18;;;;;;;29.08;7.45;;;;;;;;;;4989370;28;20034;-50
2021/03/21 05:27:49;;;;;;;26.70;7.43;;;;;;;;;;4989848;28;20661;-48
2021/03/21 05:30:26;;;;;;;28.52;7.60;;;;;;;;;;4989551;28;20041;-49
2021/03/21 05:32:54;;;;;;;24.60;8.18;;;;;;;;;;4989416;28;20027;-51
2021/03/21 05:35:22;;;;;;;26.55;6.68;;;;;;;;;;4989285;28;20483;-49
2021/03/21 05:37:49;;;;;;;32.10;7.57;;;;;;;;;;4989396;28;20062;-52
2021/03/21 05:40:28;;;;;;;26.27;7.22;;;;;;;;;;4989399;28;20390;-49
2021/03/21 05:43:14;;;;;;;27.40;7.15;;;;;;;;;;4989466;28;20048;-49
2021/03/21 05:45:47;;;;;;;21.27;6.15;;;;;;;;;;4989246;28;20022;-49
2021/03/21 05:48:32;;;;;;;22.65;7.03;;;;;;;;;;4989255;28;20586;-48
2021/03/21 05:51:17;;;;;;;26.63;6.72;;;;;;;;;;4988696;28;20030;-47
2021/03/21 05:53:56;;;;;;;25.58;6.93;;;;;;;;;;4989458;28;20030;-51
2021/03/21 05:56:23;;;;;;;27.45;6.40;;;;;;;;;;4985774;28;20125;-48
2021/03/21 05:58:53;;;;;;;25.15;6.95;;;;;;;;;;4988161;28;20666;-48
2021/03/21 06:01:39;;;;;;;23.92;5.82;;;;;;;;;;4989055;28;20035;-49
2021/03/21 06:04:15;;;;;;;20.55;6.13;;;;;;;;;;4969827;28;20471;-48
2021/03/21 06:07:03;;;;;;;20.63;6.30;;;;;;;;;;4969951;28;20542;-47
2021/03/21 06:09:48;;;;;;;22.73;6.47;;;;;;;;;;4970935;28;20102;-49
2021/03/21 06:12:27;;;;;;;24.15;5.85;;;;;;;;;;4989067;28;20390;-48
2021/03/21 06:14:54;;;;;;;19.38;5.68;;;;;;;;;;4990075;28;20030;-50
2021/03/21 06:17:39;;;;;;;17.77;6.22;;;;;;;;;;4993081;28;20042;-51
2021/03/21 06:20:22;;;;;;;22.30;5.70;;;;;;;;;;4992915;28;20040;-49
2021/03/21 06:22:52;;;;;;;22.77;6.40;;;;;;;;;;4992998;28;20494;-49
2021/03/21 06:25:54;;;;;;;22.10;5.90;;;;;;;;;;4992930;28;20088;-48
2021/03/21 06:28:25;;;;;;;14.77;5.03;;;;;;;;;;4913284;29;20087;-50
2021/03/21 06:31:10;;;;;;;20.77;6.10;;;;;;;;;;4966939;28;20070;-52
2021/03/21 06:33:46;;;;;;;26.88;6.50;;;;;;;;;;4973432;28;20061;-54
2021/03/21 06:36:22;;;;;;;24.48;6.10;;;;;;;;;;4973186;28;20031;-59
2021/03/21 06:38:57;;;;;;;26.38;6.25;;;;;;;;;;4973066;28;20026;-56
2021/03/21 06:41:30;;;;;;;16.50;5.38;;;;;;;;;;4973119;28;20558;-53
2021/03/21 06:44:10;;;;;;;25.92;5.32;;;;;;;;;;4973055;28;20035;-53
2021/03/21 06:46:36;;;;;;;16.27;4.72;;;;;;;;;;4972967;28;20045;-54
2021/03/21 06:49:13;;;;;;;18.75;5.10;;;;;;;;;;4972836;28;20062;-55
2021/03/21 06:51:49;;;;;;;20.92;5.78;;;;;;;;;;4972804;28;20031;-55
2021/03/21 06:54:36;;;;;;;15.70;4.45;;;;;;;;;;4972769;28;20196;-56
2021/03/21 06:57:22;;;;;;;18.27;5.03;;;;;;;;;;4955264;28;20702;-54
2021/03/21 07:00:13;;;;;;;21.85;5.20;;;;;;;;;;4972822;28;20025;-57
2021/03/21 07:02:59;;;;;;;22.35;5.22;;;;;;;;;;4955314;28;20487;-55
2021/03/21 07:05:37;;;;;;;20.33;5.18;;;;;;;;;;4972820;28;20031;-55
2021/03/21 07:08:04;;;;;;;18.63;5.20;;;;;;;;;;4972641;28;20027;-52
2021/03/21 07:10:50;;;;;;;21.17;5.22;;;;;;;;;;4972461;28;20034;-49
2021/03/21 07:13:34;;;;;;;13.85;4.93;;;;;;;;;;4972558;28;20031;-50
2021/03/21 07:16:12;;;;;;;13.55;5.10;;;;;;;;;;4972759;28;20058;-48
2021/03/21 07:18:58;;;;;;;16.83;4.38;;;;;;;;;;4955098;28;20407;-51
2021/03/21 07:21:47;;;;;;;14.32;4.55;;;;;;;;;;4955003;28;20419;-51
2021/03/21 07:24:36;;;;;;;19.95;5.03;;;;;;;;;;4972677;28;20383;-55
2021/03/21 07:27:03;;;;;;;20.55;4.68;;;;;;;;;;4987999;28;20030;-51
2021/03/21 07:29:42;;;;;;;17.95;5.13;;;;;;;;;;4991790;28;20702;-56
2021/03/21 07:32:09;;;;;;;24.42;4.40;;;;;;;;;;4991698;28;20031;-51
2021/03/21 07:34:36;;;;;;;18.20;4.50;;;;;;;;;;4991722;28;20014;-57
2021/03/21 07:37:09;;;;;;;13.65;4.70;;;;;;;;;;4991756;28;20045;-51
2021/03/21 07:39:43;;;;;;;17.15;4.53;;;;;;;;;;4991841;28;20084;-48
2021/03/21 07:42:15;;;;;;;17.33;4.57;;;;;;;;;;4991557;28;20081;-47
2021/03/21 07:44:51;;;;;;;12.90;3.83;;;;;;;;;;4991639;28;20383;-49
2021/03/21 07:47:24;;;;;;;12.63;3.90;;;;;;;;;;4991572;28;20487;-48
2021/03/21 07:49:54;;;;;;;21.48;5.18;;;;;;;;;;4974009;28;20797;-47
2021/03/21 07:52:21;;;;;;;17.13;3.92;;;;;;;;;;4991413;28;20026;-47
2021/03/21 07:55:02;;;;;;;15.65;4.00;;;;;;;;;;4991321;28;20041;-49
2021/03/21 07:57:37;;;;;;;13.10;4.15;;;;;;;;;;4991179;28;20046;-48
2021/03/21 08:00:05;;;;;;;15.60;4.30;;;;;;;;;;4991379;28;20034;-48
2021/03/21 08:02:32;;;;;;;13.90;4.25;;;;;;;;;;4991358;28;20030;-47
2021/03/21 08:05:02;;;;;;;16.05;3.97;;;;;;;;;;4991062;28;20022;-48
2021/03/21 08:07:32;;;;;;;11.50;4.00;;;;;;;;;;4990998;28;20542;-50
2021/03/21 08:09:59;;;;;;;21.67;4.47;;;;;;;;;;4991304;28;20023;-47
2021/03/21 08:12:26;;;;;;;12.15;3.67;;;;;;;;;;4991102;28;20041;-48
2021/03/21 08:15:03;;;;;;;12.80;4.15;;;;;;;;;;4990969;28;20029;-48
2021/03/21 08:17:36;;;;;;;11.15;3.38;;;;;;;;;;4990798;28;20117;-48
2021/03/21 08:20:07;;;;;;;9.60;3.25;;;;;;;;;;4990702;28;20398;-48
2021/03/21 08:22:34;;;;;;;10.82;3.72;;;;;;;;;;4990563;28;20042;-49
2021/03/21 08:25:04;;;;;;;11.00;3.65;;;;;;;;;;4990533;28;20070;-48
2021/03/21 08:27:33;;;;;;;13.88;3.85;;;;;;;;;;4990827;28;20034;-49
2021/03/21 08:30:09;;;;;;;15.57;4.18;;;;;;;;;;4990678;28;20037;-48
2021/03/21 08:32:49;;;;;;;11.40;4.07;;;;;;;;;;4990527;28;20031;-49
2021/03/21 08:35:18;;;;;;;11.75;3.58;;;;;;;;;;4990602;28;20022;-48
2021/03/21 08:37:49;;;;;;;8.98;3.30;;;;;;;;;;4989824;28;20031;-48
2021/03/21 08:40:31;;;;;;;14.40;3.30;;;;;;;;;;4973302;28;20031;-49
2021/03/21 08:43:11;;;;;;;11.52;3.70;;;;;;;;;;4990447;28;20483;-49
2021/03/21 08:45:40;;;;;;;16.90;4.28;;;;;;;;;;4990504;28;20037;-49
2021/03/21 08:48:06;;;;;;;11.55;3.75;;;;;;;;;;4990390;28;20030;-47
2021/03/21 08:50:33;;;;;;;12.00;3.25;;;;;;;;;;4990139;28;20486;-48
2021/03/21 08:53:00;;;;;;;9.82;2.97;;;;;;;;;;4990518;28;20092;-48
2021/03/21 08:55:29;;;;;;;13.02;3.22;;;;;;;;;;4972483;28;20390;-48
2021/03/21 08:57:57;;;;;;;11.77;3.35;;;;;;;;;;4990256;28;20053;-56
2021/03/21 09:00:34;;;;;;;14.57;3.45;;;;;;;;;;4990107;28;20545;-55
2021/03/21 09:03:17;;;;;;;16.52;3.80;;;;;;;;;;4990018;28;20025;-56
2021/03/21 09:05:57;;;;;;;12.80;3.78;;;;;;;;;;4990146;28;20025;-58
2021/03/21 09:08:26;;;;;;;9.77;3.28;;;;;;;;;;4989868;28;20057;-55
2021/03/21 09:10:55;;;;;;;9.80;3.63;;;;;;;;;;4989932;28;20069;-53
2021/03/21 09:13:25;;;;;;;11.55;3.35;;;;;;;;;;4989911;28;20486;-50
2021/03/21 09:15:55;;;;;;;8.40;3.08;;;;;;;;;;4989873;28;20661;-56
2021/03/21 09:18:25;;;;;;;9.55;3.15;;;;;;;;;;4989549;28;20038;-55
2021/03/21 09:20:57;;;;;;;9.70;3.35;;;;;;;;;;4989361;28;20073;-54
2021/03/21 09:23:36;;;;;;;13.38;3.60;;;;;;;;;;4989922;28;20034;-54
2021/03/21 09:26:20;;;;;;;9.75;3.20;;;;;;;;;;4989929;28;20022;-52
2021/03/21 09:28:51;;;;;;;8.32;2.90;;;;;;;;;;4989550;28;20041;-48
2021/03/21 09:31:18;;;;;;;10.27;3.88;;;;;;;;;;4989512;28;20038;-56
2021/03/21 09:33:57;;;;;;;11.05;3.00;;;;;;;;;;4989764;28;20044;-54
2021/03/21 09:36:24;;;;;;;8.05;3.35;;;;;;;;;;4989645;28;20093;-52
2021/03/21 09:38:54;;;;;;;8.55;3.33;;;;;;;;;;4989494;28;20105;-51
2021/03/21 09:41:28;;;;;;;10.68;3.15;;;;;;;;;;4989619;28;20076;-46
2021/03/21 09:44:01;;;;;;;7.25;2.80;;;;;;;;;;4989297;28;20053;-52
2021/03/21 09:46:44;;;;;;;10.70;3.15;;;;;;;;;;4989477;28;20030;-51
2021/03/21 09:49:15;;;;;;;10.48;3.33;;;;;;;;;;4989558;28;20457;-51
2021/03/21 09:51:49;;;;;;;9.10;2.92;;;;;;;;;;4993753;28;20520;-50
2021/03/21 09:54:22;;;;;;;7.65;3.22;;;;;;;;;;4993345;28;20028;-50
2021/03/21 09:56:53;;;;;;;9.77;3.08;;;;;;;;;;4993437;28;20486;-49
2021/03/21 09:59:38;;;;;;;8.63;2.40;;;;;;;;;;4993466;28;20502;-52
2021/03/21 10:02:21;;;;;;;10.43;2.90;;;;;;;;;;4993267;28;20026;-49
2021/03/21 10:04:53;;;;;;;8.63;3.20;;;;;;;;;;4993296;28;20030;-49
2021/03/21 10:07:29;;;;;;;5.53;2.67;;;;;;;;;;4993498;28;20026;-52
2021/03/21 10:09:58;;;;;;;10.10;2.83;;;;;;;;;;4993383;28;20034;-50
2021/03/21 10:12:25;;;;;;;9.30;2.92;;;;;;;;;;4993305;28;20445;-51
2021/03/21 10:14:59;;;;;;;7.82;3.13;;;;;;;;;;4993052;28;20026;-53
2021/03/21 10:17:26;;;;;;;12.13;3.08;;;;;;;;;;4992849;28;20117;-50
2021/03/21 10:19:55;;;;;;;7.60;3.25;;;;;;;;;;4975483;28;20530;-49
2021/03/21 10:22:22;;;;;;;7.38;3.38;;;;;;;;;;4992863;28;20597;-52
2021/03/21 10:24:50;;;;;;;7.63;3.13;;;;;;;;;;4993242;28;20117;-51
2021/03/21 10:27:24;;;;;;;8.52;3.25;;;;;;;;;;4992873;28;20037;-52
2021/03/21 10:30:09;;;;;;;6.85;3.30;;;;;;;;;;4992974;28;20105;-48
2021/03/21 10:32:38;;;;;;;8.18;3.58;;;;;;;;;;4992956;28;20077;-49
2021/03/21 10:35:12;;;;;;;8.43;3.67;;;;;;;;;;4992897;28;20038;-49
2021/03/21 10:37:43;;;;;;;11.40;2.75;;;;;;;;;;4992819;28;20042;-48
2021/03/21 10:40:14;;;;;;;9.25;3.20;;;;;;;;;;4992764;28;20082;-48
2021/03/21 10:42:43;;;;;;;8.70;2.97;;;;;;;;;;4992527;28;20053;-52
2021/03/21 10:45:12;;;;;;;6.68;2.90;;;;;;;;;;4992673;28;20038;-48
2021/03/21 10:47:40;;;;;;;6.68;2.60;;;;;;;;;;4992652;28;20045;-52
2021/03/21 10:50:30;;;;;;;7.07;3.22;;;;;;;;;;4992552;28;20410;-50
2021/03/21 10:53:15;;;;;;;10.70;3.25;;;;;;;;;;4954344;28;20097;-51
2021/03/21 10:55:43;;;;;;;11.93;3.70;;;;;;;;;;4992361;28;20026;-51
2021/03/21 10:58:22;;;;;;;9.95;3.20;;;;;;;;;;4992137;28;20057;-48
2021/03/21 11:01:08;;;;;;;8.48;2.78;;;;;;;;;;4991690;28;20030;-47
2021/03/21 11:03:35;;;;;;;6.45;3.00;;;;;;;;;;4992300;28;20027;-53
2021/03/21 11:06:02;;;;;;;7.75;3.03;;;;;;;;;;4992293;28;20058;-52
2021/03/21 11:08:32;;;;;;;7.85;3.13;;;;;;;;;;4992161;28;20037;-52
2021/03/21 11:11:13;;;;;;;8.05;3.25;;;;;;;;;;4991976;28;20487;-49
2021/03/21 11:13:41;;;;;;;8.40;3.20;;;;;;;;;;4992027;28;20486;-46
2021/03/21 11:16:11;;;;;;;6.60;3.05;;;;;;;;;;4992059;28;20023;-50
2021/03/21 11:18:39;;;;;;;5.60;3.00;;;;;;;;;;4991803;28;20034;-49
2021/03/21 11:21:10;;;;;;;7.63;3.28;;;;;;;;;;4974208;28;20051;-56
2021/03/21 11:23:48;;;;;;;9.07;3.23;;;;;;;;;;4974247;28;20506;-55
2021/03/21 11:26:19;;;;;;;9.98;3.42;;;;;;;;;;4992045;28;20027;-52
2021/03/21 11:28:46;;;;;;;6.43;2.92;;;;;;;;;;4991969;28;20049;-52
2021/03/21 11:31:16;;;;;;;7.25;3.15;;;;;;;;;;4991789;28;20026;-52
2021/03/21 11:33:45;;;;;;;7.32;2.72;;;;;;;;;;4991801;28;20022;-52
2021/03/21 11:36:24;;;;;;;5.72;2.78;;;;;;;;;;4991706;28;20030;-49
2021/03/21 11:38:52;;;;;;;7.32;3.20;;;;;;;;;;4991680;28;20169;-50
2021/03/21 11:41:39;;;;;;;6.68;2.97;;;;;;;;;;4991642;28;20041;-47
2021/03/21 11:44:18;;;;;;;7.35;3.58;;;;;;;;;;4991438;28;20032;-51
2021/03/21 11:46:45;;;;;;;5.10;3.00;;;;;;;;;;4991599;28;20038;-51
2021/03/21 11:49:13;;;;;;;7.20;2.83;;;;;;;;;;4991711;28;20018;-50
2021/03/21 11:51:41;;;;;;;7.47;3.10;;;;;;;;;;4991612;28;20054;-48
2021/03/21 11:54:08;;;;;;;9.52;3.40;;;;;;;;;;4991270;28;20542;-48
2021/03/21 11:56:56;;;;;;;6.25;2.83;;;;;;;;;;4991232;28;20065;-48
2021/03/21 11:59:26;;;;;;;7.72;2.95;;;;;;;;;;4991152;28;20023;-47
2021/03/21 12:01:57;;;;;;;7.47;2.88;;;;;;;;;;4973763;28;20038;-48
2021/03/21 12:04:29;;;;;;;7.15;3.00;;;;;;;;;;4991098;28;20030;-48
2021/03/21 12:07:00;;;;;;;7.60;2.92;;;;;;;;;;4991129;28;20026;-48
2021/03/21 12:09:34;;;;;;;6.50;2.72;;;;;;;;;;4990827;28;20052;-51
2021/03/21 12:12:06;;;;;;;8.23;3.17;;;;;;;;;;4990614;28;20486;-47
2021/03/21 12:14:33;;;;;;;7.78;2.92;;;;;;;;;;4990793;28;20038;-47
2021/03/21 12:17:01;;;;;;;9.48;2.83;;;;;;;;;;4990592;28;20061;-49
2021/03/21 12:19:34;;;;;;;6.85;3.05;;;;;;;;;;4990963;28;20018;-49
2021/03/21 12:22:06;;;;;;;6.28;2.70;;;;;;;;;;4990609;28;20101;-50
2021/03/21 12:24:33;;;;;;;7.72;3.38;;;;;;;;;;4990760;28;20037;-47
2021/03/21 12:27:00;;;;;;;8.77;3.63;;;;;;;;;;4990494;28;20121;-50
2021/03/21 12:29:33;;;;;;;8.35;2.90;;;;;;;;;;4977518;28;20029;-51
2021/03/21 12:32:35;;;;;;;8.23;3.00;;;;;;;;;;4973348;28;20019;-52
2021/03/21 12:35:03;;;;;;;9.55;3.33;;;;;;;;;;4938543;28;20050;-49
2021/03/21 12:37:44;;;;;;;6.75;2.90;;;;;;;;;;4969421;28;20793;-50
2021/03/21 12:40:15;;;;;;;9.30;2.88;;;;;;;;;;4971015;28;20023;-51
2021/03/21 12:42:44;;;;;;;7.15;2.85;;;;;;;;;;4970871;28;20395;-52
2021/03/21 12:45:20;;;;;;;8.30;3.45;;;;;;;;;;4971173;28;20054;-49
2021/03/21 12:47:56;;;;;;;8.18;3.00;;;;;;;;;;4970839;28;20110;-49
2021/03/21 12:50:38;;;;;;;5.10;2.78;;;;;;;;;;4971048;28;20100;-52
2021/03/21 12:53:05;;;;;;;7.72;3.15;;;;;;;;;;4970753;28;20782;-50
2021/03/21 12:55:32;;;;;;;5.20;2.80;;;;;;;;;;4984372;28;20034;-50
2021/03/21 12:57:59;;;;;;;7.07;3.08;;;;;;;;;;4990117;28;20063;-51
2021/03/21 13:00:29;;;;;;;7.30;3.13;;;;;;;;;;4990390;28;20117;-54
2021/03/21 13:02:57;;;;;;;7.63;2.60;;;;;;;;;;4990131;28;20506;-50
2021/03/21 13:05:27;;;;;;;9.60;2.70;;;;;;;;;;4989933;28;20420;-52
2021/03/21 13:07:54;;;;;;;9.77;3.10;;;;;;;;;;4989883;28;20022;-48
2021/03/21 13:10:21;;;;;;;5.68;2.67;;;;;;;;;;4989948;28;20125;-49
2021/03/21 13:12:51;;;;;;;5.38;2.38;;;;;;;;;;4989738;28;20026;-49
2021/03/21 13:15:19;;;;;;;7.30;2.88;;;;;;;;;;4972729;28;20034;-49
2021/03/21 13:17:46;;;;;;;7.57;3.10;;;;;;;;;;4989425;28;20398;-49
2021/03/21 13:20:14;;;;;;;5.95;2.92;;;;;;;;;;4971183;28;20041;-53
2021/03/21 13:22:41;;;;;;;5.60;2.40;;;;;;;;;;4989597;28;20054;-48
2021/03/21 13:25:09;;;;;;;7.35;3.00;;;;;;;;;;4971946;28;20030;-48
2021/03/21 13:27:36;;;;;;;6.22;2.78;;;;;;;;;;4989629;28;20176;-51
2021/03/21 13:30:04;;;;;;;8.18;2.75;;;;;;;;;;4989832;28;20061;-51
2021/03/21 13:32:31;;;;;;;5.05;2.35;;;;;;;;;;4989722;28;20041;-48
2021/03/21 13:34:58;;;;;;;7.15;2.85;;;;;;;;;;4989486;28;20761;-49
2021/03/21 13:37:25;;;;;;;7.47;2.63;;;;;;;;;;4989577;28;20038;-47
2021/03/21 13:39:52;;;;;;;6.63;2.40;;;;;;;;;;4972228;28;20022;-47
2021/03/21 13:42:20;;;;;;;10.63;3.10;;;;;;;;;;4989420;28;20776;-48
2021/03/21 13:44:48;;;;;;;5.65;2.53;;;;;;;;;;4989476;28;20034;-52
2021/03/21 13:47:15;;;;;;;6.03;2.55;;;;;;;;;;4989039;28;20088;-47
2021/03/21 13:49:42;;;;;;;5.90;2.47;;;;;;;;;;4989344;28;20034;-56
2021/03/21 13:52:09;;;;;;;6.85;2.55;;;;;;;;;;4989330;28;20114;-57
2021/03/21 13:54:38;;;;;;;5.43;2.85;;;;;;;;;;4989581;28;20034;-57
2021/03/21 13:57:07;;;;;;;6.88;2.50;;;;;;;;;;4989317;28;20038;-56
2021/03/21 13:59:37;;;;;;;7.88;2.50;;;;;;;;;;4989045;28;20371;-57
2021/03/21 14:02:04;;;;;;;16.27;2.50;;;;;;;;;;4989316;28;20038;-56
2021/03/21 14:04:31;;;;;;;4.35;2.20;;;;;;;;;;4989358;28;20018;-52
2021/03/21 14:06:58;;;;;;;6.32;2.70;;;;;;;;;;4989183;28;20128;-47
2021/03/21 14:09:25;;;;;;;8.90;2.50;;;;;;;;;;4989257;28;20462;-47
2021/03/21 14:11:52;;;;;;;5.97;2.47;;;;;;;;;;4955532;28;20057;-53
2021/03/21 14:14:19;;;;;;;7.13;2.28;;;;;;;;;;4989164;28;20120;-52
2021/03/21 14:16:46;;;;;;;5.68;2.10;;;;;;;;;;4989056;28;20034;-51
2021/03/21 14:19:13;;;;;;;7.15;2.75;;;;;;;;;;4989488;28;20027;-55
2021/03/21 14:21:41;;;;;;;11.55;3.08;;;;;;;;;;4988743;28;20506;-56
2021/03/21 14:24:08;;;;;;;9.23;2.40;;;;;;;;;;4989210;28;20486;-51
2021/03/21 14:26:35;;;;;;;5.70;2.50;;;;;;;;;;4988140;28;20034;-52
2021/03/21 14:29:02;;;;;;;6.93;2.88;;;;;;;;;;4987381;28;20109;-54
2021/03/21 14:31:29;;;;;;;6.03;2.92;;;;;;;;;;4984871;28;20038;-52
2021/03/21 14:33:56;;;;;;;8.80;3.00;;;;;;;;;;4985261;28;20022;-55
2021/03/21 14:36:23;;;;;;;23.92;3.42;;;;;;;;;;4969271;28;20027;-50
2021/03/21 14:38:51;;;;;;;8.73;3.00;;;;;;;;;;4972949;28;20189;-51
2021/03/21 14:41:18;;;;;;;12.93;3.47;;;;;;;;;;4973686;28;20031;-47
2021/03/21 14:43:46;;;;;;;10.10;3.05;;;;;;;;;;4974100;28;20164;-49
2021/03/21 14:46:13;;;;;;;7.40;2.80;;;;;;;;;;4990904;28;20034;-50
2021/03/21 14:48:40;;;;;;;9.43;3.13;;;;;;;;;;4974109;28;20030;-50
2021/03/21 14:51:07;;;;;;;6.55;3.10;;;;;;;;;;4990975;28;20931;-47
2021/03/21 14:53:34;;;;;;;16.05;3.00;;;;;;;;;;4973128;28;20026;-47
2021/03/21 14:56:01;;;;;;;8.32;3.00;;;;;;;;;;4990533;28;20030;-50
2021/03/21 14:58:28;;;;;;;9.40;3.35;;;;;;;;;;4990925;28;21367;-49
2021/03/21 15:00:57;;;;;;;7.43;2.65;;;;;;;;;;4968885;28;20030;-52
2021/03/21 15:03:24;;;;;;;6.97;2.85;;;;;;;;;;4980807;28;20059;-48